sensor_id;sensor_type;location;lat;lon;timestamp;pressure;altitude;pressure_sealevel;temperature;humidity
41040;BME280;48586;50.122;18.972;2022-10-17T00:02:57;99590.97;;;13.54;69.38
41040;BME280;48586;50.122;18.972;2022-10-17T00:06:04;99591.56;;;13.56;69.25
41040;BME280;48586;50.122;18.972;2022-10-17T00:09:06;99594.03;;;13.57;69.34
41040;BME280;48586;50.122;18.972;2022-10-17T00:12:09;99598.72;;;13.55;69.30
41040;BME280;48586;50.122;18.972;2022-10-17T00:15:15;99604.28;;;13.54;69.20
41040;BME280;48586;50.122;18.972;2022-10-17T00:18:18;99598.13;;;13.53;69.29
41040;BME280;48586;50.122;18.972;2022-10-17T00:21:21;99611.84;;;13.50;69.38
41040;BME280;48586;50.122;18.972;2022-10-17T00:24:23;99606.91;;;13.47;69.60
41040;BME280;48586;50.122;18.972;2022-10-17T00:27:25;99611.41;;;13.46;70.00
41040;BME280;48586;50.122;18.972;2022-10-17T00:30:27;99610.41;;;13.47;69.74
41040;BME280;48586;50.122;18.972;2022-10-17T00:33:31;99611.63;;;13.45;69.89
41040;BME280;48586;50.122;18.972;2022-10-17T00:36:33;99615.50;;;13.42;69.55
41040;BME280;48586;50.122;18.972;2022-10-17T00:39:35;99605.66;;;13.30;69.38
41040;BME280;48586;50.122;18.972;2022-10-17T00:42:37;99616.06;;;13.11;69.05
41040;BME280;48586;50.122;18.972;2022-10-17T00:45:39;99618.09;;;13.03;69.40
41040;BME280;48586;50.122;18.972;2022-10-17T00:48:47;99624.81;;;12.99;69.62
41040;BME280;48586;50.122;18.972;2022-10-17T00:51:53;99620.50;;;12.91;69.44
41040;BME280;48586;50.122;18.972;2022-10-17T00:55:01;99631.13;;;12.84;69.39
41040;BME280;48586;50.122;18.972;2022-10-17T00:58:04;99620.66;;;12.76;69.59
41040;BME280;48586;50.122;18.972;2022-10-17T01:01:07;99623.91;;;12.72;69.57
41040;BME280;48586;50.122;18.972;2022-10-17T01:04:10;99628.16;;;12.66;69.87
41040;BME280;48586;50.122;18.972;2022-10-17T01:07:13;99622.59;;;12.61;69.95
41040;BME280;48586;50.122;18.972;2022-10-17T01:10:15;99623.03;;;12.58;70.19
41040;BME280;48586;50.122;18.972;2022-10-17T01:13:22;99619.50;;;12.57;70.18
41040;BME280;48586;50.122;18.972;2022-10-17T01:16:32;99618.69;;;12.57;70.46
41040;BME280;48586;50.122;18.972;2022-10-17T01:19:56;99621.56;;;12.55;70.46
41040;BME280;48586;50.122;18.972;2022-10-17T01:23:17;99633.00;;;12.49;70.20
41040;BME280;48586;50.122;18.972;2022-10-17T01:26:33;99628.41;;;12.36;70.02
41040;BME280;48586;50.122;18.972;2022-10-17T01:29:45;99633.78;;;12.21;71.83
41040;BME280;48586;50.122;18.972;2022-10-17T01:32:53;99630.69;;;12.18;70.47
41040;BME280;48586;50.122;18.972;2022-10-17T01:35:59;99632.75;;;12.16;70.27
41040;BME280;48586;50.122;18.972;2022-10-17T01:39:11;99634.38;;;12.17;70.70
41040;BME280;48586;50.122;18.972;2022-10-17T01:42:18;99633.78;;;12.15;70.75
41040;BME280;48586;50.122;18.972;2022-10-17T01:45:30;99637.63;;;12.12;70.64
41040;BME280;48586;50.122;18.972;2022-10-17T01:48:36;99638.81;;;12.10;70.46
41040;BME280;48586;50.122;18.972;2022-10-17T01:51:42;99632.66;;;12.03;70.92
41040;BME280;48586;50.122;18.972;2022-10-17T01:54:49;99634.88;;;11.99;70.67
41040;BME280;48586;50.122;18.972;2022-10-17T01:57:56;99633.81;;;11.93;70.67
41040;BME280;48586;50.122;18.972;2022-10-17T02:01:02;99634.81;;;11.92;70.74
41040;BME280;48586;50.122;18.972;2022-10-17T02:04:08;99631.31;;;11.92;70.54
41040;BME280;48586;50.122;18.972;2022-10-17T02:07:11;99628.44;;;11.87;70.67
41040;BME280;48586;50.122;18.972;2022-10-17T02:10:29;99636.59;;;11.85;70.81
41040;BME280;48586;50.122;18.972;2022-10-17T02:13:38;99628.00;;;11.83;70.82
41040;BME280;48586;50.122;18.972;2022-10-17T02:16:48;99634.97;;;11.84;70.81
41040;BME280;48586;50.122;18.972;2022-10-17T02:20:01;99630.66;;;11.83;70.75
41040;BME280;48586;50.122;18.972;2022-10-17T02:23:10;99631.66;;;11.82;70.70
41040;BME280;48586;50.122;18.972;2022-10-17T02:26:20;99632.69;;;11.81;70.69
41040;BME280;48586;50.122;18.972;2022-10-17T02:29:28;99629.38;;;11.79;70.70
41040;BME280;48586;50.122;18.972;2022-10-17T02:32:40;99628.31;;;11.74;70.53
41040;BME280;48586;50.122;18.972;2022-10-17T02:35:49;99633.59;;;11.67;70.69
41040;BME280;48586;50.122;18.972;2022-10-17T02:38:53;99635.34;;;11.60;70.72
41040;BME280;48586;50.122;18.972;2022-10-17T02:41:56;99631.06;;;11.59;70.75
41040;BME280;48586;50.122;18.972;2022-10-17T02:45:00;99629.41;;;11.58;71.10
41040;BME280;48586;50.122;18.972;2022-10-17T02:48:05;99635.94;;;11.55;70.95
41040;BME280;48586;50.122;18.972;2022-10-17T02:51:14;99632.63;;;11.53;70.83
41040;BME280;48586;50.122;18.972;2022-10-17T02:54:25;99633.44;;;11.54;71.07
41040;BME280;48586;50.122;18.972;2022-10-17T02:57:31;99650.38;;;11.53;70.94
41040;BME280;48586;50.122;18.972;2022-10-17T03:00:34;99656.09;;;11.50;70.79
41040;BME280;48586;50.122;18.972;2022-10-17T03:03:38;99659.94;;;11.47;70.73
41040;BME280;48586;50.122;18.972;2022-10-17T03:06:41;99656.84;;;11.43;70.96
41040;BME280;48586;50.122;18.972;2022-10-17T03:09:44;99658.41;;;11.38;71.04
41040;BME280;48586;50.122;18.972;2022-10-17T03:12:45;99663.88;;;11.36;71.29
41040;BME280;48586;50.122;18.972;2022-10-17T03:15:47;99665.28;;;11.32;71.27
41040;BME280;48586;50.122;18.972;2022-10-17T03:18:49;99672.63;;;11.30;71.53
41040;BME280;48586;50.122;18.972;2022-10-17T03:21:53;99675.47;;;11.29;71.82
41040;BME280;48586;50.122;18.972;2022-10-17T03:24:56;99681.59;;;11.29;71.81
41040;BME280;48586;50.122;18.972;2022-10-17T03:27:59;99681.59;;;11.29;71.62
41040;BME280;48586;50.122;18.972;2022-10-17T03:31:06;99678.94;;;11.29;71.87
41040;BME280;48586;50.122;18.972;2022-10-17T03:34:08;99676.91;;;11.31;71.71
41040;BME280;48586;50.122;18.972;2022-10-17T03:37:11;99674.91;;;11.33;71.82
41040;BME280;48586;50.122;18.972;2022-10-17T03:40:14;99678.53;;;11.32;71.75
41040;BME280;48586;50.122;18.972;2022-10-17T03:43:17;99688.34;;;11.32;71.42
41040;BME280;48586;50.122;18.972;2022-10-17T03:46:19;99686.25;;;11.27;71.52
41040;BME280;48586;50.122;18.972;2022-10-17T03:49:21;99685.38;;;11.20;71.36
41040;BME280;48586;50.122;18.972;2022-10-17T03:52:25;99682.88;;;11.18;71.52
41040;BME280;48586;50.122;18.972;2022-10-17T03:55:29;99687.38;;;11.18;71.24
41040;BME280;48586;50.122;18.972;2022-10-17T03:58:30;99677.97;;;11.15;71.37
41040;BME280;48586;50.122;18.972;2022-10-17T04:01:34;99692.72;;;11.03;71.58
41040;BME280;48586;50.122;18.972;2022-10-17T04:04:35;99695.66;;;10.93;72.00
41040;BME280;48586;50.122;18.972;2022-10-17T04:07:38;99697.09;;;10.96;72.13
41040;BME280;48586;50.122;18.972;2022-10-17T04:10:41;99700.78;;;10.95;72.12
41040;BME280;48586;50.122;18.972;2022-10-17T04:13:43;99691.59;;;10.98;72.17
41040;BME280;48586;50.122;18.972;2022-10-17T04:16:45;99698.13;;;10.95;72.12
41040;BME280;48586;50.122;18.972;2022-10-17T04:19:54;99696.47;;;10.94;72.31
41040;BME280;48586;50.122;18.972;2022-10-17T04:22:58;99701.41;;;10.97;72.25
41040;BME280;48586;50.122;18.972;2022-10-17T04:26:01;99702.97;;;10.91;72.06
41040;BME280;48586;50.122;18.972;2022-10-17T04:29:03;99697.66;;;10.91;72.35
41040;BME280;48586;50.122;18.972;2022-10-17T04:32:05;99702.59;;;10.94;72.24
41040;BME280;48586;50.122;18.972;2022-10-17T04:35:23;99697.31;;;10.94;72.30
41040;BME280;48586;50.122;18.972;2022-10-17T04:38:35;99704.59;;;10.92;71.89
41040;BME280;48586;50.122;18.972;2022-10-17T04:41:36;99714.59;;;10.90;71.88
41040;BME280;48586;50.122;18.972;2022-10-17T04:44:39;99707.19;;;10.86;71.92
41040;BME280;48586;50.122;18.972;2022-10-17T04:47:40;99709.56;;;10.81;71.77
41040;BME280;48586;50.122;18.972;2022-10-17T04:50:52;99717.06;;;10.77;72.38
41040;BME280;48586;50.122;18.972;2022-10-17T04:54:06;99713.75;;;10.75;72.37
41040;BME280;48586;50.122;18.972;2022-10-17T04:57:09;99711.09;;;10.75;72.55
41040;BME280;48586;50.122;18.972;2022-10-17T05:00:14;99709.09;;;10.77;72.42
41040;BME280;48586;50.122;18.972;2022-10-17T05:03:27;99706.06;;;10.80;72.44
41040;BME280;48586;50.122;18.972;2022-10-17T05:06:29;99712.03;;;10.82;72.31
41040;BME280;48586;50.122;18.972;2022-10-17T05:09:52;99710.19;;;10.83;72.21
41040;BME280;48586;50.122;18.972;2022-10-17T05:12:57;99714.69;;;10.82;72.01
41040;BME280;48586;50.122;18.972;2022-10-17T05:16:04;99709.56;;;10.81;71.80
41040;BME280;48586;50.122;18.972;2022-10-17T05:19:06;99711.91;;;10.76;71.64
41040;BME280;48586;50.122;18.972;2022-10-17T05:22:14;99719.13;;;10.67;71.83
41040;BME280;48586;50.122;18.972;2022-10-17T05:25:17;99723.31;;;10.61;71.84
41040;BME280;48586;50.122;18.972;2022-10-17T05:28:19;99723.25;;;10.55;71.82
41040;BME280;48586;50.122;18.972;2022-10-17T05:31:21;99727.25;;;10.51;71.95
41040;BME280;48586;50.122;18.972;2022-10-17T05:34:23;99731.81;;;10.57;72.06
41040;BME280;48586;50.122;18.972;2022-10-17T05:37:25;99740.53;;;10.65;72.03
41040;BME280;48586;50.122;18.972;2022-10-17T05:40:31;99733.69;;;10.71;71.74
41040;BME280;48586;50.122;18.972;2022-10-17T05:43:33;99737.00;;;10.73;71.84
41040;BME280;48586;50.122;18.972;2022-10-17T05:46:35;99739.09;;;10.78;72.00
41040;BME280;48586;50.122;18.972;2022-10-17T05:49:38;99746.31;;;10.84;72.07
41040;BME280;48586;50.122;18.972;2022-10-17T05:52:40;99747.22;;;10.91;71.97
41040;BME280;48586;50.122;18.972;2022-10-17T05:55:55;99748.44;;;11.03;72.01
41040;BME280;48586;50.122;18.972;2022-10-17T05:58:57;99760.94;;;11.09;71.90
41040;BME280;48586;50.122;18.972;2022-10-17T06:02:13;99757.38;;;11.17;71.90
41040;BME280;48586;50.122;18.972;2022-10-17T06:05:16;99755.81;;;11.23;71.91
41040;BME280;48586;50.122;18.972;2022-10-17T06:08:18;99759.19;;;11.31;71.85
41040;BME280;48586;50.122;18.972;2022-10-17T06:11:21;99759.72;;;11.41;71.99
41040;BME280;48586;50.122;18.972;2022-10-17T06:14:24;99757.41;;;11.53;71.51
41040;BME280;48586;50.122;18.972;2022-10-17T06:17:31;99770.41;;;11.63;71.55
41040;BME280;48586;50.122;18.972;2022-10-17T06:20:33;99776.13;;;11.66;71.42
41040;BME280;48586;50.122;18.972;2022-10-17T06:23:36;99774.59;;;11.72;71.75
41040;BME280;48586;50.122;18.972;2022-10-17T06:26:49;99772.06;;;11.85;71.69
41040;BME280;48586;50.122;18.972;2022-10-17T06:29:52;99771.56;;;11.96;72.63
41040;BME280;48586;50.122;18.972;2022-10-17T06:32:54;99775.69;;;11.99;71.65
41040;BME280;48586;50.122;18.972;2022-10-17T06:35:57;99775.81;;;12.12;71.65
41040;BME280;48586;50.122;18.972;2022-10-17T06:39:00;99786.91;;;12.37;72.00
41040;BME280;48586;50.122;18.972;2022-10-17T06:42:09;99782.97;;;12.55;71.89
41040;BME280;48586;50.122;18.972;2022-10-17T06:45:27;99786.63;;;12.82;71.92
41040;BME280;48586;50.122;18.972;2022-10-17T06:48:42;99794.19;;;13.13;71.85
41040;BME280;48586;50.122;18.972;2022-10-17T06:51:56;99800.50;;;13.46;71.31
41040;BME280;48586;50.122;18.972;2022-10-17T06:55:14;99798.81;;;13.80;71.30
41040;BME280;48586;50.122;18.972;2022-10-17T06:58:26;99798.69;;;14.15;70.47
41040;BME280;48586;50.122;18.972;2022-10-17T07:02:01;99801.16;;;14.43;70.57
41040;BME280;48586;50.122;18.972;2022-10-17T07:05:04;99801.59;;;14.66;70.05
41040;BME280;48586;50.122;18.972;2022-10-17T07:08:08;99804.91;;;14.88;69.22
41040;BME280;48586;50.122;18.972;2022-10-17T07:11:14;99812.25;;;15.06;68.92
41040;BME280;48586;50.122;18.972;2022-10-17T07:14:18;99807.69;;;15.27;68.94
41040;BME280;48586;50.122;18.972;2022-10-17T07:17:20;99806.38;;;15.49;68.25
41040;BME280;48586;50.122;18.972;2022-10-17T07:20:23;99807.53;;;15.73;68.24
41040;BME280;48586;50.122;18.972;2022-10-17T07:23:25;99808.22;;;16.00;67.33
41040;BME280;48586;50.122;18.972;2022-10-17T07:26:27;99798.91;;;16.16;66.74
41040;BME280;48586;50.122;18.972;2022-10-17T07:29:31;99812.84;;;16.25;66.34
41040;BME280;48586;50.122;18.972;2022-10-17T07:32:43;99815.22;;;16.33;66.21
41040;BME280;48586;50.122;18.972;2022-10-17T07:35:45;99815.78;;;16.41;65.73
41040;BME280;48586;50.122;18.972;2022-10-17T07:38:47;99808.09;;;16.52;64.92
41040;BME280;48586;50.122;18.972;2022-10-17T07:41:51;99818.91;;;16.63;64.40
41040;BME280;48586;50.122;18.972;2022-10-17T07:44:54;99816.31;;;16.75;64.52
41040;BME280;48586;50.122;18.972;2022-10-17T07:47:57;99825.06;;;16.89;64.07
41040;BME280;48586;50.122;18.972;2022-10-17T07:51:01;99818.47;;;17.10;64.00
41040;BME280;48586;50.122;18.972;2022-10-17T07:54:03;99815.53;;;17.18;63.02
41040;BME280;48586;50.122;18.972;2022-10-17T07:57:06;99820.84;;;17.25;62.68
41040;BME280;48586;50.122;18.972;2022-10-17T08:00:10;99814.16;;;17.34;62.29
41040;BME280;48586;50.122;18.972;2022-10-17T08:03:15;99814.66;;;17.42;62.41
41040;BME280;48586;50.122;18.972;2022-10-17T08:06:17;99820.09;;;17.54;62.04
41040;BME280;48586;50.122;18.972;2022-10-17T08:09:19;99816.78;;;17.70;62.46
41040;BME280;48586;50.122;18.972;2022-10-17T08:12:21;99803.94;;;17.91;61.41
41040;BME280;48586;50.122;18.972;2022-10-17T08:15:26;99805.75;;;18.09;61.58
41040;BME280;48586;50.122;18.972;2022-10-17T08:18:28;99809.25;;;18.39;61.14
41040;BME280;48586;50.122;18.972;2022-10-17T08:21:29;99805.31;;;18.65;60.96
41040;BME280;48586;50.122;18.972;2022-10-17T08:24:31;99817.59;;;18.73;59.86
41040;BME280;48586;50.122;18.972;2022-10-17T08:27:34;99818.66;;;18.95;59.84
41040;BME280;48586;50.122;18.972;2022-10-17T08:30:37;99822.88;;;19.15;59.35
41040;BME280;48586;50.122;18.972;2022-10-17T08:33:40;99821.78;;;19.39;58.91
41040;BME280;48586;50.122;18.972;2022-10-17T08:36:42;99825.69;;;19.72;58.66
41040;BME280;48586;50.122;18.972;2022-10-17T08:39:44;99824.56;;;19.97;57.90
41040;BME280;48586;50.122;18.972;2022-10-17T08:46:13;99828.75;;;20.50;57.13
41040;BME280;48586;50.122;18.972;2022-10-17T08:49:22;99822.97;;;20.75;55.56
41040;BME280;48586;50.122;18.972;2022-10-17T08:52:32;99826.81;;;20.96;55.55
41040;BME280;48586;50.122;18.972;2022-10-17T08:55:39;99825.97;;;20.95;54.58
41040;BME280;48586;50.122;18.972;2022-10-17T08:58:41;99827.09;;;21.16;54.62
41040;BME280;48586;50.122;18.972;2022-10-17T09:01:48;99825.59;;;21.25;52.31
41040;BME280;48586;50.122;18.972;2022-10-17T09:08:36;99822.88;;;21.64;53.22
41040;BME280;48586;50.122;18.972;2022-10-17T09:11:51;99827.78;;;22.16;52.52
41040;BME280;48586;50.122;18.972;2022-10-17T09:15:20;99822.63;;;22.68;52.48
41040;BME280;48586;50.122;18.972;2022-10-17T09:18:29;99820.28;;;22.82;50.60
41040;BME280;48586;50.122;18.972;2022-10-17T09:21:40;99816.19;;;23.17;51.99
41040;BME280;48586;50.122;18.972;2022-10-17T09:24:46;99819.47;;;23.77;50.67
41040;BME280;48586;50.122;18.972;2022-10-17T09:27:52;99813.56;;;24.00;50.26
41040;BME280;48586;50.122;18.972;2022-10-17T09:30:58;99810.66;;;24.53;49.42
41040;BME280;48586;50.122;18.972;2022-10-17T09:34:03;99810.34;;;25.00;49.32
41040;BME280;48586;50.122;18.972;2022-10-17T09:37:08;99809.94;;;25.58;47.50
41040;BME280;48586;50.122;18.972;2022-10-17T09:40:18;99809.50;;;25.90;47.35
41040;BME280;48586;50.122;18.972;2022-10-17T09:43:22;99811.81;;;26.17;46.28
41040;BME280;48586;50.122;18.972;2022-10-17T09:46:26;99820.22;;;26.55;45.26
41040;BME280;48586;50.122;18.972;2022-10-17T09:49:33;99816.53;;;26.75;44.66
41040;BME280;48586;50.122;18.972;2022-10-17T09:52:40;99817.94;;;27.01;43.56
41040;BME280;48586;50.122;18.972;2022-10-17T09:55:49;99811.97;;;27.23;43.94
41040;BME280;48586;50.122;18.972;2022-10-17T09:58:55;99811.44;;;27.69;44.28
41040;BME280;48586;50.122;18.972;2022-10-17T10:02:07;99812.53;;;27.68;37.43
41040;BME280;48586;50.122;18.972;2022-10-17T10:05:16;99813.84;;;27.47;40.12
41040;BME280;48586;50.122;18.972;2022-10-17T10:08:20;99812.34;;;27.83;42.93
41040;BME280;48586;50.122;18.972;2022-10-17T10:11:24;99813.13;;;28.03;41.88
41040;BME280;48586;50.122;18.972;2022-10-17T10:14:29;99815.28;;;27.87;40.42
41040;BME280;48586;50.122;18.972;2022-10-17T10:17:35;99804.47;;;28.20;40.38
41040;BME280;48586;50.122;18.972;2022-10-17T10:20:39;99806.25;;;28.62;40.33
41040;BME280;48586;50.122;18.972;2022-10-17T10:24:04;99807.28;;;28.99;36.46
41040;BME280;48586;50.122;18.972;2022-10-17T10:27:12;99805.25;;;29.18;36.69
41040;BME280;48586;50.122;18.972;2022-10-17T10:30:16;99805.41;;;28.80;36.87
41040;BME280;48586;50.122;18.972;2022-10-17T10:33:21;99806.41;;;28.84;38.79
41040;BME280;48586;50.122;18.972;2022-10-17T10:36:41;99809.28;;;29.07;33.59
41040;BME280;48586;50.122;18.972;2022-10-17T10:39:47;99802.19;;;28.92;37.24
41040;BME280;48586;50.122;18.972;2022-10-17T10:42:51;99808.47;;;28.93;37.23
41040;BME280;48586;50.122;18.972;2022-10-17T10:45:55;99804.31;;;28.95;37.27
41040;BME280;48586;50.122;18.972;2022-10-17T10:48:58;99804.75;;;29.30;36.31
41040;BME280;48586;50.122;18.972;2022-10-17T10:52:03;99794.22;;;29.09;33.49
41040;BME280;48586;50.122;18.972;2022-10-17T10:55:16;99790.78;;;29.04;36.33
41040;BME280;48586;50.122;18.972;2022-10-17T10:58:32;99784.84;;;29.43;34.69
41040;BME280;48586;50.122;18.972;2022-10-17T11:01:40;99787.41;;;29.76;36.06
41040;BME280;48586;50.122;18.972;2022-10-17T11:04:46;99791.03;;;29.99;32.67
41040;BME280;48586;50.122;18.972;2022-10-17T11:07:55;99792.47;;;30.19;33.37
41040;BME280;48586;50.122;18.972;2022-10-17T11:11:07;99788.97;;;30.49;34.53
41040;BME280;48586;50.122;18.972;2022-10-17T11:14:17;99786.97;;;30.55;34.08
41040;BME280;48586;50.122;18.972;2022-10-17T11:17:27;99775.06;;;30.91;33.66
41040;BME280;48586;50.122;18.972;2022-10-17T11:20:37;99772.34;;;31.39;32.46
41040;BME280;48586;50.122;18.972;2022-10-17T11:23:46;99772.22;;;31.53;33.23
41040;BME280;48586;50.122;18.972;2022-10-17T11:26:52;99765.00;;;32.09;32.77
41040;BME280;48586;50.122;18.972;2022-10-17T11:29:56;99774.22;;;32.13;32.11
41040;BME280;48586;50.122;18.972;2022-10-17T11:33:00;99763.91;;;32.19;32.64
41040;BME280;48586;50.122;18.972;2022-10-17T11:36:06;99765.63;;;31.54;30.71
41040;BME280;48586;50.122;18.972;2022-10-17T11:39:15;99763.75;;;31.15;30.91
41040;BME280;48586;50.122;18.972;2022-10-17T11:42:23;99765.00;;;31.08;30.98
41040;BME280;48586;50.122;18.972;2022-10-17T11:45:29;99769.41;;;30.87;32.22
41040;BME280;48586;50.122;18.972;2022-10-17T11:48:36;99765.97;;;30.05;33.50
41040;BME280;48586;50.122;18.972;2022-10-17T11:51:44;99774.75;;;29.80;33.93
41040;BME280;48586;50.122;18.972;2022-10-17T11:54:53;99772.56;;;29.68;33.02
41040;BME280;48586;50.122;18.972;2022-10-17T11:58:15;99772.69;;;29.49;31.20
41040;BME280;48586;50.122;18.972;2022-10-17T12:01:26;99779.28;;;29.21;34.01
41040;BME280;48586;50.122;18.972;2022-10-17T12:04:39;99763.78;;;29.44;33.45
41040;BME280;48586;50.122;18.972;2022-10-17T12:07:49;99761.34;;;29.01;33.58
41040;BME280;48586;50.122;18.972;2022-10-17T12:10:58;99762.09;;;28.60;33.12
41040;BME280;48586;50.122;18.972;2022-10-17T12:14:01;99759.19;;;28.37;34.31
41040;BME280;48586;50.122;18.972;2022-10-17T12:17:04;99763.81;;;28.04;34.27
41040;BME280;48586;50.122;18.972;2022-10-17T12:20:32;99757.31;;;28.19;32.66
41040;BME280;48586;50.122;18.972;2022-10-17T12:23:36;99761.25;;;28.13;34.67
41040;BME280;48586;50.122;18.972;2022-10-17T12:26:39;99754.72;;;28.28;34.34
41040;BME280;48586;50.122;18.972;2022-10-17T12:29:41;99752.28;;;28.12;34.29
41040;BME280;48586;50.122;18.972;2022-10-17T12:32:59;99752.31;;;27.88;33.52
41040;BME280;48586;50.122;18.972;2022-10-17T12:36:36;99750.81;;;27.39;34.64
41040;BME280;48586;50.122;18.972;2022-10-17T12:39:41;99756.56;;;27.14;35.31
41040;BME280;48586;50.122;18.972;2022-10-17T12:42:49;99757.94;;;26.87;34.50
41040;BME280;48586;50.122;18.972;2022-10-17T12:45:52;99753.72;;;26.71;35.43
41040;BME280;48586;50.122;18.972;2022-10-17T12:49:02;99746.50;;;26.61;35.56
41040;BME280;48586;50.122;18.972;2022-10-17T12:52:23;99744.56;;;26.62;35.77
41040;BME280;48586;50.122;18.972;2022-10-17T12:55:26;99739.47;;;26.55;36.41
41040;BME280;48586;50.122;18.972;2022-10-17T12:58:29;99744.19;;;26.45;36.08
41040;BME280;48586;50.122;18.972;2022-10-17T13:01:33;99741.78;;;26.38;36.21
41040;BME280;48586;50.122;18.972;2022-10-17T13:04:37;99738.84;;;26.34;36.63
41040;BME280;48586;50.122;18.972;2022-10-17T13:07:40;99742.22;;;26.21;36.41
41040;BME280;48586;50.122;18.972;2022-10-17T13:10:45;99736.53;;;26.17;36.31
41040;BME280;48586;50.122;18.972;2022-10-17T13:13:52;99746.69;;;26.02;36.08
41040;BME280;48586;50.122;18.972;2022-10-17T13:16:56;99750.03;;;25.88;36.32
41040;BME280;48586;50.122;18.972;2022-10-17T13:19:58;99754.88;;;25.91;36.60
41040;BME280;48586;50.122;18.972;2022-10-17T13:23:00;99757.34;;;25.93;36.36
41040;BME280;48586;50.122;18.972;2022-10-17T13:26:05;99750.66;;;25.75;36.17
41040;BME280;48586;50.122;18.972;2022-10-17T13:29:11;99752.63;;;25.64;35.83
41040;BME280;48586;50.122;18.972;2022-10-17T13:32:14;99743.69;;;25.59;36.16
41040;BME280;48586;50.122;18.972;2022-10-17T13:35:22;99745.34;;;25.55;35.92
41040;BME280;48586;50.122;18.972;2022-10-17T13:38:27;99739.38;;;25.53;36.71
41040;BME280;48586;50.122;18.972;2022-10-17T13:41:32;99740.72;;;25.55;37.05
41040;BME280;48586;50.122;18.972;2022-10-17T13:44:36;99736.44;;;25.49;36.12
41040;BME280;48586;50.122;18.972;2022-10-17T13:47:38;99737.25;;;25.39;36.75
41040;BME280;48586;50.122;18.972;2022-10-17T13:50:40;99738.88;;;25.40;36.52
41040;BME280;48586;50.122;18.972;2022-10-17T13:53:43;99741.84;;;25.39;36.94
41040;BME280;48586;50.122;18.972;2022-10-17T13:56:44;99736.16;;;25.35;36.59
41040;BME280;48586;50.122;18.972;2022-10-17T13:59:49;99735.66;;;25.33;36.72
41040;BME280;48586;50.122;18.972;2022-10-17T14:02:52;99737.28;;;25.29;36.82
41040;BME280;48586;50.122;18.972;2022-10-17T14:06:02;99731.56;;;25.31;36.37
41040;BME280;48586;50.122;18.972;2022-10-17T14:09:13;99729.72;;;25.21;37.33
41040;BME280;48586;50.122;18.972;2022-10-17T14:12:20;99734.09;;;25.17;36.88
41040;BME280;48586;50.122;18.972;2022-10-17T14:15:27;99737.91;;;25.11;36.63
41040;BME280;48586;50.122;18.972;2022-10-17T14:18:32;99739.56;;;25.07;37.51
41040;BME280;48586;50.122;18.972;2022-10-17T14:21:35;99740.09;;;25.04;36.92
41040;BME280;48586;50.122;18.972;2022-10-17T14:24:39;99737.69;;;24.97;36.96
41040;BME280;48586;50.122;18.972;2022-10-17T14:27:53;99735.25;;;24.96;37.43
41040;BME280;48586;50.122;18.972;2022-10-17T14:31:12;99739.31;;;24.88;36.97
41040;BME280;48586;50.122;18.972;2022-10-17T14:34:21;99732.84;;;24.84;37.52
41040;BME280;48586;50.122;18.972;2022-10-17T14:37:40;99737.97;;;24.96;37.70
41040;BME280;48586;50.122;18.972;2022-10-17T14:40:49;99731.19;;;24.98;38.05
41040;BME280;48586;50.122;18.972;2022-10-17T14:43:54;99731.72;;;24.95;38.22
41040;BME280;48586;50.122;18.972;2022-10-17T14:47:01;99734.19;;;24.86;38.31
41040;BME280;48586;50.122;18.972;2022-10-17T14:50:06;99735.25;;;24.75;38.54
41040;BME280;48586;50.122;18.972;2022-10-17T14:53:19;99731.22;;;24.73;38.96
41040;BME280;48586;50.122;18.972;2022-10-17T14:56:24;99723.63;;;24.64;39.08
41040;BME280;48586;50.122;18.972;2022-10-17T14:59:27;99721.47;;;24.56;39.31
41040;BME280;48586;50.122;18.972;2022-10-17T15:02:31;99728.53;;;24.52;39.33
41040;BME280;48586;50.122;18.972;2022-10-17T15:05:33;99728.03;;;24.45;39.93
41040;BME280;48586;50.122;18.972;2022-10-17T15:08:35;99729.66;;;24.41;40.39
41040;BME280;48586;50.122;18.972;2022-10-17T15:11:37;99730.72;;;24.35;40.21
41040;BME280;48586;50.122;18.972;2022-10-17T15:14:40;99730.97;;;24.23;40.40
41040;BME280;48586;50.122;18.972;2022-10-17T15:17:44;99731.00;;;24.13;41.61
41040;BME280;48586;50.122;18.972;2022-10-17T15:20:46;99726.09;;;24.00;41.21
41040;BME280;48586;50.122;18.972;2022-10-17T15:23:50;99725.28;;;23.89;41.46
41040;BME280;48586;50.122;18.972;2022-10-17T15:26:52;99732.56;;;23.78;41.69
41040;BME280;48586;50.122;18.972;2022-10-17T15:29:55;99730.38;;;23.65;42.23
41040;BME280;48586;50.122;18.972;2022-10-17T15:33:00;99730.06;;;23.51;42.51
41040;BME280;48586;50.122;18.972;2022-10-17T15:36:03;99729.44;;;23.29;43.27
41040;BME280;48586;50.122;18.972;2022-10-17T15:39:05;99726.91;;;23.12;43.04
41040;BME280;48586;50.122;18.972;2022-10-17T15:42:08;99729.81;;;22.95;43.01
41040;BME280;48586;50.122;18.972;2022-10-17T15:45:13;99726.78;;;22.81;43.20
41040;BME280;48586;50.122;18.972;2022-10-17T15:48:19;99728.84;;;22.69;43.24
41040;BME280;48586;50.122;18.972;2022-10-17T15:51:25;99740.13;;;22.56;43.95
41040;BME280;48586;50.122;18.972;2022-10-17T15:54:28;99731.34;;;22.43;43.83
41040;BME280;48586;50.122;18.972;2022-10-17T15:57:33;99732.00;;;22.24;44.81
41040;BME280;48586;50.122;18.972;2022-10-17T16:00:38;99742.63;;;22.03;44.94
41040;BME280;48586;50.122;18.972;2022-10-17T16:03:42;99735.78;;;21.90;45.44
41040;BME280;48586;50.122;18.972;2022-10-17T16:06:46;99739.84;;;21.71;46.50
41040;BME280;48586;50.122;18.972;2022-10-17T16:09:49;99737.09;;;21.39;47.15
41040;BME280;48586;50.122;18.972;2022-10-17T16:12:53;99742.34;;;21.07;48.16
41040;BME280;48586;50.122;18.972;2022-10-17T16:15:55;99743.09;;;20.85;48.61
41040;BME280;48586;50.122;18.972;2022-10-17T16:19:00;99738.88;;;20.73;48.10
41040;BME280;48586;50.122;18.972;2022-10-17T16:22:03;99736.38;;;20.66;47.88